LFRO

Lannion-Côte de Granit Airport

Lannion, France
TAF AMD LFRO 161828Z 1618/1712 27010KT 9999 FEW015 BKN025
Issued Valid From Valid To
Jul-16 @ 18:28 UTC
(6 hours ago)
Jul-16 @ 18:00 UTC
(6 hours ago)
Jul-17 @ 12:00 UTC
(in 12 hours)
Jul-16 @ 18:00 to Jul-17 @ 12:00
TAF AMD LFRO 161828Z 1618/1712 27010KT 9999 FEW015 BKN025
Wind Visibility Clouds
270° at 10 knots 10,000+ meters
  • Few at 1,500' AGL
  • Broken at 2,500' AGL
TAF AMD LFRO 161828Z 1618/1712 27010KT 9999 FEW015 BKN025
Issued Jul-16 @ 18:28 UTC
(6 hours ago)
Valid From Jul-16 @ 18:00 UTC
(6 hours ago)
Valid To Jul-17 @ 12:00 UTC
(in 12 hours)
Jul-16 @ 18:00 - Jul-17 @ 12:00
Wind Visibility
270° at 10 knots 10,000+ meters
Clouds
  • Few at 1,500' AGL
  • Broken at 2,500' AGL